Archival Weather

Norman Y Mineta San Jose Intl

San Jose, California (KSJC)

Report from: Thursday, February 22, 2024 7:53 AM PST
Current time: Monday, June 24, 2024 3:41 AM PDT

Current weather – Weather history – Daily summaries
Weather forecast

Temperature8.9°C (48.0°F)
Wind chill8.3°C (47.0°F)
Dew point6.7°C (44.1°F)
Winds 3 kts (1.5 m/s, 3.5 mph) South (170°)
Visibility10 mi. (16.1 km)
Clouds Few clouds 1,600 ft. (488 m)
Few clouds 3,700 ft. (1,128 m)
Few clouds 5,500 ft. (1,676 m)
Altimeter30.27 in.Hg (1025 mB)
Relative humidity86 %
Density altitude-987 ft. (-301 m)
Sea-level pressure102.5 kPa (1025 mB, 30.27 in.Hg)
Remarks Automated weather observing station with precipitation discriminator
Flight conditions Visual Meteorological Conditions
Raw dataKSJC 221553Z 17003KT 10SM FEW016 FEW037 FEW055 09/07 A3027 RMK AO2 SLP250 T00890067
An error has occurred. This application may no longer respond until reloaded. Reload 🗙